KCWV Airport (Claxton-Evans County) Information

FAA: CWV - ICAO: KCWV

KCWV Airport Location

State Georgia
County Evans
City Claxton
KCWV Airport is 3 miles northeast of Claxton, GA.
Latitude 32-11-42.1940N
Longitude 081-52-10.1250W
Elevation 111ft

KCWV Airport METARs

METAR KCWV 071915Z AUTO 28007KT 10SM SCT034 SCT040 SCT065 27/18 A3026 RMK AO2 T02730181
Altimeter 30.26"
Temperature 27.3°C (81.1°F)
Wind 280° at 7KT
Clouds scattered at 3,400ft scattered at 4,000ft scattered at 6,500ft
Visibility 10.0mi
Time observed: 2022-12-07T19:15:00Z

KCWV Airport Details

Status Operational
Activation April 1971
Ownership Public
Usage Public
Chart ATLANTA
ATC on-site No
Beacon schedule sunset-sunrise
Beacon color clear green

KCWV Airport Contacts

Owner CITY OF CLAXTON
Owner address BOX 33, CLAXTON, GA 30417
Owner phone 912-739-1712
Manager LARRY KING
Manager address 1112 LORIMER ROAD, RALEIGH, NC 27606-1857
Manager phone (919) 649-1515

KCWV Airport (Claxton-Evans County) Radio Frequencies

KCWV (Airport) Radio Frequencies

UNICOM 122.8
Common traffic advisory frequency (CTAF) 122.8